createdAt,value
2022-12-08T00:01:34.697Z,100676.40
2022-12-08T00:04:04.327Z,100667.40
2022-12-08T00:06:57.920Z,100659.60
2022-12-08T00:09:38.983Z,100665.40
2022-12-08T00:12:16.734Z,100658.40
2022-12-08T00:14:47.440Z,100652.40
2022-12-08T00:17:17.118Z,100653.40
2022-12-08T00:19:45.513Z,100654.00
2022-12-08T00:22:14.839Z,100655.20
2022-12-08T00:24:46.405Z,100653.20
2022-12-08T00:27:16.088Z,100651.80
2022-12-08T00:29:45.544Z,100644.60
2022-12-08T00:32:13.538Z,100642.40
2022-12-08T00:34:41.290Z,100640.40
2022-12-08T00:37:08.991Z,100636.00
2022-12-08T00:39:37.050Z,100625.20
2022-12-08T00:42:14.352Z,100627.40
2022-12-08T00:44:44.836Z,100632.00
2022-12-08T00:47:13.589Z,100627.00
2022-12-08T00:49:42.242Z,100617.60
2022-12-08T00:52:10.088Z,100616.20
2022-12-08T00:54:38.203Z,100615.40
2022-12-08T00:57:06.251Z,100607.00
2022-12-08T00:59:33.994Z,100611.00
2022-12-08T01:02:01.719Z,100600.80
2022-12-08T01:04:29.517Z,100601.00
2022-12-08T01:06:57.312Z,100600.40
2022-12-08T01:09:25.085Z,100592.00
2022-12-08T01:11:53.088Z,100591.00
2022-12-08T01:14:21.128Z,100591.40
2022-12-08T01:16:48.908Z,100588.40
2022-12-08T01:19:17.956Z,100590.60
2022-12-08T01:21:46.244Z,100587.20
2022-12-08T01:24:20.597Z,100584.40
2022-12-08T01:26:51.370Z,100576.20
2022-12-08T01:29:19.273Z,100577.40
2022-12-08T01:31:46.941Z,100578.40
2022-12-08T01:34:14.825Z,100577.20
2022-12-08T01:36:44.330Z,100572.60
2022-12-08T01:39:19.007Z,100567.40
2022-12-08T01:41:47.811Z,100568.40
2022-12-08T01:44:15.493Z,100572.00
2022-12-08T01:46:45.949Z,100561.20
2022-12-08T01:49:32.062Z,100558.40
2022-12-08T01:52:16.288Z,100554.00
2022-12-08T01:54:52.420Z,100556.00
2022-12-08T01:57:45.035Z,100554.80
2022-12-08T02:00:18.233Z,100549.00
2022-12-08T02:03:03.948Z,100548.60
2022-12-08T02:05:36.408Z,100550.20
2022-12-08T02:08:10.123Z,100551.20
2022-12-08T02:10:42.561Z,100547.60
2022-12-08T02:13:16.283Z,100540.40
2022-12-08T02:16:09.075Z,100538.60
2022-12-08T02:19:14.705Z,100541.20
2022-12-08T02:22:07.315Z,100544.60
2022-12-08T02:24:51.753Z,100535.60
2022-12-08T02:27:41.778Z,100534.80
2022-12-08T02:30:30.697Z,100535.00
2022-12-08T02:33:25.873Z,100529.00
2022-12-08T02:36:02.204Z,100524.40
2022-12-08T02:38:55.364Z,100530.20
2022-12-08T02:41:48.096Z,100520.40
2022-12-08T02:44:31.471Z,100519.20
2022-12-08T02:47:13.572Z,100523.80
2022-12-08T02:49:41.767Z,100519.20
2022-12-08T02:52:12.519Z,100509.80
2022-12-08T02:54:45.857Z,100504.20
2022-12-08T02:57:54.789Z,100502.60
2022-12-08T03:00:27.184Z,100500.60
2022-12-08T03:03:21.027Z,100497.40
2022-12-08T03:06:13.224Z,100491.00
2022-12-08T03:08:58.677Z,100485.20
2022-12-08T03:11:43.360Z,100481.40
2022-12-08T03:14:17.641Z,100468.00
2022-12-08T03:16:55.128Z,100467.80
2022-12-08T03:19:34.380Z,100466.20
2022-12-08T03:22:05.965Z,100464.00
2022-12-08T03:24:42.949Z,100462.00
2022-12-08T03:27:28.085Z,100466.00
2022-12-08T03:30:00.243Z,100472.20
2022-12-08T03:32:58.959Z,100472.00
2022-12-08T03:35:31.706Z,100471.20
2022-12-08T03:38:13.120Z,100470.00
2022-12-08T03:40:41.984Z,100468.20
2022-12-08T03:43:10.273Z,100461.40
2022-12-08T03:45:37.987Z,100459.80
2022-12-08T03:48:06.410Z,100459.80
2022-12-08T03:50:34.180Z,100451.40
2022-12-08T03:53:01.889Z,100449.40
2022-12-08T03:55:29.541Z,100444.40
2022-12-08T03:57:57.212Z,100438.80
2022-12-08T04:00:25.074Z,100438.20
2022-12-08T04:02:52.866Z,100437.40
2022-12-08T04:05:20.923Z,100440.00
2022-12-08T04:07:48.651Z,100449.80
2022-12-08T04:10:16.588Z,100445.00
2022-12-08T04:12:44.280Z,100442.60
2022-12-08T04:15:11.924Z,100437.80
2022-12-08T04:17:39.599Z,100434.20
2022-12-08T04:20:07.721Z,100434.40
2022-12-08T04:22:35.710Z,100435.40
2022-12-08T04:25:03.707Z,100431.00
2022-12-08T04:27:31.398Z,100434.40
2022-12-08T04:29:59.130Z,100431.60
2022-12-08T04:32:26.780Z,100430.60
2022-12-08T04:34:54.466Z,100434.20
2022-12-08T04:37:22.255Z,100431.00
2022-12-08T04:39:49.922Z,100431.20
2022-12-08T04:42:17.564Z,100428.00
2022-12-08T04:44:45.197Z,100421.40
2022-12-08T04:47:13.272Z,100420.60
2022-12-08T04:49:41.586Z,100421.60
2022-12-08T04:52:09.884Z,100416.80
2022-12-08T04:54:37.767Z,100411.80
2022-12-08T04:57:05.522Z,100410.60
2022-12-08T04:59:33.492Z,100406.60
2022-12-08T05:02:01.303Z,100405.60
2022-12-08T05:04:29.130Z,100407.40
2022-12-08T05:06:57.051Z,100411.60
2022-12-08T05:09:25.177Z,100401.20
2022-12-08T05:11:52.822Z,100398.80
2022-12-08T05:14:20.513Z,100401.60
2022-12-08T05:16:48.546Z,100399.20
2022-12-08T05:19:17.152Z,100396.80
2022-12-08T05:21:45.432Z,100396.40
2022-12-08T05:24:13.184Z,100398.00
2022-12-08T05:26:40.996Z,100400.00
2022-12-08T05:29:08.700Z,100393.40
2022-12-08T05:31:36.406Z,100395.80
2022-12-08T05:34:04.153Z,100394.20
2022-12-08T05:36:31.902Z,100393.40
2022-12-08T05:38:59.590Z,100395.80
2022-12-08T05:41:27.303Z,100392.80
2022-12-08T05:43:55.040Z,100387.00
2022-12-08T05:46:23.155Z,100382.40
2022-12-08T05:48:51.073Z,100381.00
2022-12-08T05:51:24.144Z,100376.40
2022-12-08T05:53:53.690Z,100368.60
2022-12-08T05:56:22.777Z,100364.80
2022-12-08T05:58:51.204Z,100367.60
2022-12-08T06:01:25.870Z,100366.60
2022-12-08T06:03:54.538Z,100367.40
2022-12-08T06:06:22.808Z,100371.00
2022-12-08T06:08:51.232Z,100371.80
2022-12-08T06:11:25.997Z,100365.00
2022-12-08T06:13:55.985Z,100360.80
2022-12-08T06:16:26.304Z,100366.20
2022-12-08T06:18:54.864Z,100363.00
2022-12-08T06:21:22.669Z,100365.60
2022-12-08T06:23:53.482Z,100370.20
2022-12-08T06:26:22.353Z,100369.20
2022-12-08T06:28:52.080Z,100367.20
2022-12-08T06:31:26.446Z,100365.20
2022-12-08T06:33:55.564Z,100370.20
2022-12-08T06:36:26.553Z,100369.80
2022-12-08T06:38:54.578Z,100365.80
2022-12-08T06:41:22.365Z,100370.40
2022-12-08T06:43:50.320Z,100365.20
2022-12-08T06:46:20.297Z,100371.00
2022-12-08T06:48:50.426Z,100368.20
2022-12-08T06:51:22.759Z,100371.80
2022-12-08T06:53:50.620Z,100370.00
2022-12-08T06:56:20.101Z,100372.20
2022-12-08T06:58:52.472Z,100368.00
2022-12-08T07:01:21.502Z,100365.20
2022-12-08T07:03:49.367Z,100358.80
2022-12-08T07:06:23.841Z,100352.60
2022-12-08T07:08:52.605Z,100358.00
2022-12-08T07:11:22.358Z,100359.40
2022-12-08T07:13:50.997Z,100364.80
2022-12-08T07:16:19.619Z,100358.20
2022-12-08T07:18:47.459Z,100359.80
2022-12-08T07:21:17.295Z,100358.40
2022-12-08T07:23:54.234Z,100365.20
2022-12-08T07:26:23.925Z,100361.40
2022-12-08T07:28:51.642Z,100370.40
2022-12-08T07:31:23.500Z,100374.20
2022-12-08T07:33:52.755Z,100364.60
2022-12-08T07:36:21.233Z,100361.80
2022-12-08T07:38:50.201Z,100362.20
2022-12-08T07:41:23.653Z,100362.20
2022-12-08T07:43:53.731Z,100354.00
2022-12-08T07:46:25.026Z,100353.00
2022-12-08T07:48:55.004Z,100344.80
2022-12-08T07:51:24.944Z,100348.00
2022-12-08T07:53:54.780Z,100351.00
2022-12-08T07:56:23.460Z,100349.20
2022-12-08T07:58:51.418Z,100357.00
2022-12-08T08:01:22.011Z,100361.40
2022-12-08T08:03:50.297Z,100360.40
2022-12-08T08:07:09.353Z,100354.60
2022-12-08T08:09:37.397Z,100355.00
2022-12-08T08:12:29.595Z,100361.60
2022-12-08T08:14:53.343Z,100355.80
2022-12-08T08:17:21.217Z,100355.60
2022-12-08T08:19:49.169Z,100356.80
2022-12-08T08:22:16.847Z,100349.80
2022-12-08T08:24:45.321Z,100353.60
2022-12-08T08:27:13.997Z,100349.80
2022-12-08T08:29:41.693Z,100344.40
2022-12-08T08:32:09.481Z,100343.00
2022-12-08T08:34:37.715Z,100341.60
2022-12-08T08:37:05.530Z,100342.20
2022-12-08T08:39:33.251Z,100342.60
2022-12-08T08:42:00.970Z,100341.60
2022-12-08T08:44:28.871Z,100339.60
2022-12-08T08:46:56.692Z,100337.80
2022-12-08T08:49:24.411Z,100333.20
2022-12-08T08:51:52.566Z,100328.60
2022-12-08T08:54:20.224Z,100329.80
2022-12-08T08:56:48.398Z,100331.60
2022-12-08T08:59:16.173Z,100322.20
2022-12-08T09:01:43.981Z,100326.40
2022-12-08T09:04:11.875Z,100326.00
2022-12-08T09:06:39.891Z,100331.20
2022-12-08T09:09:07.673Z,100328.80
2022-12-08T09:11:35.428Z,100325.60
2022-12-08T09:14:03.557Z,100317.00
2022-12-08T09:16:32.177Z,100317.60
2022-12-08T09:19:02.384Z,100313.20
2022-12-08T09:21:30.208Z,100317.80
2022-12-08T09:23:59.579Z,100311.60
2022-12-08T09:26:28.772Z,100313.80
2022-12-08T09:28:58.051Z,100313.20
2022-12-08T09:31:26.286Z,100310.00
2022-12-08T09:33:55.191Z,100311.20
2022-12-08T09:36:23.273Z,100303.80
2022-12-08T09:38:53.623Z,100301.60
2022-12-08T09:41:49.872Z,100301.80
2022-12-08T09:44:38.907Z,100301.80
2022-12-08T09:47:33.767Z,100296.80
2022-12-08T09:50:23.796Z,100301.80
2022-12-08T09:53:21.148Z,100301.20
2022-12-08T09:56:04.302Z,100301.40
2022-12-08T09:58:52.770Z,100306.00
2022-12-08T10:01:23.181Z,100291.80
2022-12-08T10:03:54.732Z,100302.00
2022-12-08T10:06:34.525Z,100297.00
2022-12-08T10:09:24.346Z,100297.00
2022-12-08T10:12:41.260Z,100287.60
2022-12-08T10:16:06.730Z,100282.80
2022-12-08T10:18:35.164Z,100278.20
2022-12-08T10:21:22.901Z,100278.80
2022-12-08T10:23:58.570Z,100278.60
2022-12-08T10:26:26.642Z,100274.40
2022-12-08T10:29:01.103Z,100276.00
2022-12-08T10:31:32.371Z,100269.60
2022-12-08T10:34:10.393Z,100265.60
2022-12-08T10:36:49.707Z,100264.80
2022-12-08T10:39:39.574Z,100258.00
2022-12-08T10:42:13.484Z,100257.80
2022-12-08T10:45:21.233Z,100257.80
2022-12-08T10:48:05.073Z,100256.80
2022-12-08T10:50:45.081Z,100264.60
2022-12-08T10:53:19.748Z,100263.00
2022-12-08T10:55:53.108Z,100254.80
2022-12-08T10:58:45.595Z,100251.60
2022-12-08T11:01:28.322Z,100252.40
2022-12-08T11:04:03.133Z,100248.60
2022-12-08T11:06:36.469Z,100246.20
2022-12-08T11:09:30.862Z,100240.00
2022-12-08T11:12:14.986Z,100238.60
2022-12-08T11:14:42.859Z,100240.40
2022-12-08T11:17:14.653Z,100240.80
2022-12-08T11:19:55.792Z,100234.40
2022-12-08T11:22:51.349Z,100231.20
2022-12-08T11:25:27.413Z,100233.80
2022-12-08T11:28:01.369Z,100235.00
2022-12-08T11:30:38.993Z,100235.60
2022-12-08T11:33:19.450Z,100233.80
2022-12-08T11:35:55.543Z,100238.80
2022-12-08T11:38:26.730Z,100232.00
2022-12-08T11:40:59.917Z,100234.40
2022-12-08T11:43:33.437Z,100229.80
2022-12-08T11:46:14.119Z,100224.60
2022-12-08T11:48:47.460Z,100225.80
2022-12-08T11:51:32.991Z,100218.20
2022-12-08T11:54:36.754Z,100219.80
2022-12-08T11:57:11.820Z,100218.20
2022-12-08T11:59:49.548Z,100210.20
2022-12-08T12:02:32.176Z,100206.40
2022-12-08T12:05:09.197Z,100207.00
2022-12-08T12:08:21.145Z,100207.20
2022-12-08T12:11:03.832Z,100199.00
2022-12-08T12:13:52.287Z,100197.40
2022-12-08T12:17:02.876Z,100209.40
2022-12-08T12:19:37.681Z,100200.40
2022-12-08T12:22:17.773Z,100194.20
2022-12-08T12:24:51.729Z,100192.80
2022-12-08T12:27:39.836Z,100191.00
2022-12-08T12:30:23.476Z,100186.00
2022-12-08T12:33:01.090Z,100181.60
2022-12-08T12:35:35.935Z,100181.00
2022-12-08T12:38:36.470Z,100175.00
2022-12-08T12:41:07.991Z,100170.40
2022-12-08T12:43:37.766Z,100163.80
2022-12-08T12:46:24.470Z,100158.20
2022-12-08T12:48:52.336Z,100158.80
2022-12-08T12:51:39.024Z,100151.20
2022-12-08T12:54:28.433Z,100144.00
2022-12-08T12:57:09.512Z,100146.00
2022-12-08T13:00:03.406Z,100147.60
2022-12-08T13:02:38.439Z,100148.00
2022-12-08T13:05:19.012Z,100148.00
2022-12-08T13:08:06.666Z,100149.20
2022-12-08T13:10:48.614Z,100142.40
2022-12-08T13:13:19.137Z,100138.80
2022-12-08T13:15:54.795Z,100141.40
2022-12-08T13:18:40.308Z,100147.20
2022-12-08T13:21:16.459Z,100140.40
2022-12-08T13:24:14.362Z,100135.60
2022-12-08T13:27:11.265Z,100140.60
2022-12-08T13:29:39.575Z,100141.60
2022-12-08T13:32:07.194Z,100137.00
2022-12-08T13:34:50.623Z,100133.80
2022-12-08T13:37:54.790Z,100129.60
2022-12-08T13:40:30.114Z,100128.80
2022-12-08T13:43:48.407Z,100123.40
2022-12-08T13:59:24.908Z,100114.60
2022-12-08T14:01:52.694Z,100115.20
2022-12-08T14:04:53.972Z,100114.20
2022-12-08T14:07:12.741Z,100112.60
2022-12-08T14:09:42.580Z,100109.80
2022-12-08T14:12:37.253Z,100103.00
2022-12-08T14:15:07.481Z,100099.80
2022-12-08T14:17:35.130Z,100104.00
2022-12-08T14:20:12.243Z,100101.60
2022-12-08T14:22:41.536Z,100096.60
2022-12-08T14:25:15.638Z,100094.00
2022-12-08T14:27:43.988Z,100098.00
2022-12-08T14:30:24.583Z,100101.20
2022-12-08T14:32:59.628Z,100100.60
2022-12-08T14:35:30.113Z,100096.00
2022-12-08T14:38:12.120Z,100088.60
2022-12-08T14:40:49.939Z,100089.40
2022-12-08T14:43:25.709Z,100092.40
2022-12-08T14:46:01.661Z,100092.80
2022-12-08T14:48:38.470Z,100092.60
2022-12-08T14:51:21.578Z,100099.00
2022-12-08T14:54:17.920Z,100099.20
2022-12-08T14:56:55.432Z,100099.60
2022-12-08T14:59:30.450Z,100093.60
2022-12-08T15:02:28.115Z,100090.60
2022-12-08T15:05:01.700Z,100087.60
2022-12-08T15:07:44.844Z,100089.40
2022-12-08T15:10:15.736Z,100087.60
2022-12-08T15:13:26.526Z,100090.00
2022-12-08T15:15:57.848Z,100091.00
2022-12-08T15:18:39.215Z,100093.20
2022-12-08T15:21:12.817Z,100103.80
2022-12-08T15:23:48.945Z,100104.80
2022-12-08T15:26:23.045Z,100100.20
2022-12-08T15:28:51.063Z,100096.00
2022-12-08T15:31:19.642Z,100095.20
2022-12-08T15:33:48.036Z,100103.00
2022-12-08T15:36:15.755Z,100104.60
2022-12-08T15:38:43.788Z,100109.80
2022-12-08T15:41:14.929Z,100105.80
2022-12-08T15:43:43.130Z,100109.40
2022-12-08T15:46:12.089Z,100107.80
2022-12-08T15:48:39.825Z,100106.60
2022-12-08T15:51:07.691Z,100109.00
2022-12-08T15:53:35.355Z,100106.60
2022-12-08T15:58:57.649Z,100103.60
2022-12-08T16:01:26.958Z,100103.80
2022-12-08T16:04:59.815Z,100107.20
2022-12-08T16:07:20.687Z,100103.40
2022-12-08T16:09:43.261Z,100110.60
2022-12-08T16:18:26.726Z,100115.20
2022-12-08T16:21:31.523Z,100105.60
2022-12-08T16:23:44.663Z,100106.20
2022-12-08T16:26:43.997Z,100104.80
2022-12-08T16:29:06.782Z,100105.00
2022-12-08T16:31:35.136Z,100101.40
2022-12-08T16:34:02.891Z,100100.00
2022-12-08T16:36:30.621Z,100106.40
2022-12-08T16:38:58.405Z,100105.20
2022-12-08T16:41:44.721Z,100099.80
2022-12-08T16:44:12.487Z,100098.40
2022-12-08T16:46:40.522Z,100101.80
2022-12-08T16:49:09.732Z,100102.60
2022-12-08T16:51:37.681Z,100097.20
2022-12-08T16:54:05.468Z,100103.60
2022-12-08T16:56:33.825Z,100103.20
2022-12-08T16:59:02.528Z,100090.20
2022-12-08T17:01:31.613Z,100096.60
2022-12-08T17:04:30.945Z,100091.80
2022-12-08T17:06:47.969Z,100097.80
2022-12-08T17:09:15.666Z,100089.20
2022-12-08T17:11:44.060Z,100090.20
2022-12-08T17:14:13.929Z,100098.00
2022-12-08T17:16:43.101Z,100096.60
2022-12-08T17:19:15.181Z,100098.20
2022-12-08T17:21:44.605Z,100097.60
2022-12-08T17:24:14.706Z,100095.80
2022-12-08T17:26:44.915Z,100097.80
2022-12-08T17:29:12.725Z,100096.20
2022-12-08T17:31:40.502Z,100094.40
2022-12-08T17:34:10.329Z,100092.80
2022-12-08T17:36:38.157Z,100096.00
2022-12-08T17:39:12.020Z,100098.00
2022-12-08T17:41:42.835Z,100099.40
2022-12-08T17:44:13.703Z,100100.80
2022-12-08T17:46:46.360Z,100098.40
2022-12-08T17:49:22.621Z,100103.20
2022-12-08T17:51:55.128Z,100097.00
2022-12-08T17:54:23.210Z,100095.00
2022-12-08T17:56:51.931Z,100096.20
2022-12-08T17:59:19.822Z,100094.20
2022-12-08T18:01:47.918Z,100097.80
2022-12-08T18:04:15.727Z,100100.80
2022-12-08T18:06:43.466Z,100098.00
2022-12-08T18:09:11.464Z,100092.60
2022-12-08T18:11:39.330Z,100098.60
2022-12-08T18:14:10.042Z,100101.80
2022-12-08T18:16:41.063Z,100105.60
2022-12-08T18:19:10.031Z,100106.00
2022-12-08T18:21:38.268Z,100103.00
2022-12-08T18:24:07.751Z,100107.80
2022-12-08T18:26:36.013Z,100114.00
2022-12-08T18:29:03.748Z,100107.80
2022-12-08T18:31:31.561Z,100105.20
2022-12-08T18:33:59.613Z,100109.40
2022-12-08T18:36:27.471Z,100108.40
2022-12-08T18:38:55.466Z,100108.60
2022-12-08T18:41:28.418Z,100107.00
2022-12-08T18:43:57.365Z,100111.60
2022-12-08T18:46:25.829Z,100109.60
2022-12-08T18:48:53.837Z,100112.20
2022-12-08T18:51:24.319Z,100107.00
2022-12-08T18:53:53.397Z,100109.60
2022-12-08T18:56:27.046Z,100108.60
2022-12-08T18:59:02.973Z,100111.40
2022-12-08T19:01:33.992Z,100107.40
2022-12-08T19:06:54.047Z,100097.20
2022-12-08T19:09:22.609Z,100095.40
2022-12-08T19:11:50.421Z,100097.60
2022-12-08T19:14:21.391Z,100096.20
2022-12-08T19:16:53.601Z,100092.40
2022-12-08T19:19:21.614Z,100094.40
2022-12-08T19:21:49.694Z,100093.60
2022-12-08T19:24:17.581Z,100090.40
2022-12-08T19:26:45.521Z,100087.80
2022-12-08T19:29:13.929Z,100088.60
2022-12-08T19:31:42.207Z,100092.00
2022-12-08T19:34:13.458Z,100083.00
2022-12-08T19:36:42.975Z,100081.20
2022-12-08T19:39:42.545Z,100081.00
2022-12-08T19:42:40.180Z,100087.20
2022-12-08T19:45:15.235Z,100090.40
2022-12-08T19:47:43.727Z,100090.60
2022-12-08T19:50:34.236Z,100084.20
2022-12-08T19:53:09.467Z,100088.20
2022-12-08T19:55:38.107Z,100090.20
2022-12-08T19:58:08.042Z,100083.00
2022-12-08T20:00:39.525Z,100088.20
2022-12-08T20:03:07.277Z,100090.00
2022-12-08T20:05:37.279Z,100093.00
2022-12-08T20:08:05.717Z,100086.00
2022-12-08T20:10:38.428Z,100089.20
2022-12-08T20:13:26.300Z,100086.00
2022-12-08T20:15:54.514Z,100086.60
2022-12-08T20:18:22.629Z,100089.40
2022-12-08T20:20:50.377Z,100091.00
2022-12-08T20:23:18.419Z,100091.40
2022-12-08T20:25:47.879Z,100080.60
2022-12-08T20:28:15.874Z,100082.60
2022-12-08T20:30:46.797Z,100085.00
2022-12-08T20:33:17.347Z,100077.60
2022-12-08T20:35:59.129Z,100086.40
2022-12-08T20:38:31.858Z,100083.60
2022-12-08T20:41:00.025Z,100084.00
2022-12-08T20:43:30.944Z,100086.40
2022-12-08T20:45:58.934Z,100089.80
2022-12-08T20:48:27.329Z,100085.20
2022-12-08T20:50:55.159Z,100083.80
2022-12-08T20:53:23.465Z,100091.40
2022-12-08T20:55:51.847Z,100089.00
2022-12-08T20:58:19.952Z,100091.00
2022-12-08T21:00:48.085Z,100090.80
2022-12-08T21:03:17.577Z,100095.00
2022-12-08T21:05:51.395Z,100096.40
2022-12-08T21:08:19.881Z,100094.20
2022-12-08T21:10:55.399Z,100091.80
2022-12-08T21:13:23.634Z,100096.40
2022-12-08T21:15:51.993Z,100087.60
2022-12-08T21:18:20.201Z,100078.00
2022-12-08T21:20:48.656Z,100076.40
2022-12-08T21:23:17.707Z,100078.20
2022-12-08T21:25:47.340Z,100074.00
2022-12-08T21:28:15.464Z,100082.80
2022-12-08T21:30:43.575Z,100080.80
2022-12-08T21:33:11.615Z,100083.80
2022-12-08T21:35:39.764Z,100087.80
2022-12-08T21:38:08.635Z,100081.80
2022-12-08T21:40:36.809Z,100085.60
2022-12-08T21:43:04.861Z,100090.20
2022-12-08T21:45:34.326Z,100084.40
2022-12-08T21:48:10.343Z,100082.40
2022-12-08T21:50:39.452Z,100082.80
2022-12-08T21:53:07.405Z,100087.60
2022-12-08T21:55:35.345Z,100088.40
2022-12-08T21:58:03.376Z,100080.60
2022-12-08T22:00:31.852Z,100088.20
2022-12-08T22:02:59.902Z,100081.80
2022-12-08T22:05:27.997Z,100083.80
2022-12-08T22:07:56.057Z,100083.40
2022-12-08T22:10:24.407Z,100076.80
2022-12-08T22:12:52.317Z,100083.60
2022-12-08T22:15:20.175Z,100080.40
2022-12-08T22:17:48.089Z,100078.40
2022-12-08T22:20:16.342Z,100086.20
2022-12-08T22:22:44.347Z,100080.00
2022-12-08T22:25:12.578Z,100078.40
2022-12-08T22:27:41.148Z,100074.40
2022-12-08T22:30:10.848Z,100074.80
2022-12-08T22:32:39.500Z,100063.00
2022-12-08T22:35:08.036Z,100064.00
2022-12-08T22:37:36.267Z,100058.80
2022-12-08T22:40:06.261Z,100059.40
2022-12-08T22:42:34.137Z,100061.60
2022-12-08T22:45:01.972Z,100056.80
2022-12-08T22:47:29.895Z,100053.80
2022-12-08T22:49:57.665Z,100061.40
2022-12-08T22:52:25.482Z,100057.40
2022-12-08T22:54:53.361Z,100054.60
2022-12-08T22:57:21.068Z,100051.20
2022-12-08T22:59:48.983Z,100049.80
2022-12-08T23:02:16.772Z,100050.60
2022-12-08T23:04:46.534Z,100048.40
2022-12-08T23:07:14.920Z,100048.80
2022-12-08T23:09:43.562Z,100045.20
2022-12-08T23:12:11.308Z,100041.20
2022-12-08T23:14:39.075Z,100047.80
2022-12-08T23:17:07.030Z,100051.60
2022-12-08T23:19:39.152Z,100049.00
2022-12-08T23:22:07.116Z,100057.00
2022-12-08T23:24:34.954Z,100052.00
2022-12-08T23:27:02.697Z,100054.20
2022-12-08T23:29:30.714Z,100050.00
2022-12-08T23:31:58.624Z,100061.60
2022-12-08T23:34:27.134Z,100053.00
2022-12-08T23:36:54.867Z,100051.60
2022-12-08T23:39:24.702Z,100055.80
2022-12-08T23:41:52.813Z,100060.00
2022-12-08T23:44:21.164Z,100064.00
2022-12-08T23:46:49.101Z,100065.20
2022-12-08T23:49:17.010Z,100062.00
2022-12-08T23:51:44.669Z,100062.80
2022-12-08T23:54:12.590Z,100063.00
2022-12-08T23:56:40.512Z,100064.40
2022-12-08T23:59:08.562Z,100060.40
